createdAt,value
2023-06-19T00:03:03.591Z,3.67
2023-06-19T00:07:23.285Z,3.38
2023-06-19T00:11:42.122Z,4.10
2023-06-19T00:16:01.710Z,3.88
2023-06-19T00:20:19.746Z,3.60
2023-06-19T00:28:56.201Z,3.50
2023-06-19T00:37:34.351Z,3.83
2023-06-19T00:41:56.368Z,3.47
2023-06-19T00:46:14.020Z,3.83
2023-06-19T00:50:32.713Z,3.10
2023-06-19T00:54:50.478Z,3.90
2023-06-19T00:59:17.386Z,3.60
2023-06-19T01:03:35.867Z,3.65
2023-06-19T01:08:19.192Z,3.58
2023-06-19T01:12:44.471Z,3.42
2023-06-19T01:17:02.777Z,3.35
2023-06-19T01:21:20.996Z,3.35
2023-06-19T01:25:39.213Z,3.70
2023-06-19T01:30:02.634Z,3.63
2023-06-19T01:34:22.089Z,3.47
2023-06-19T01:38:42.660Z,3.88
2023-06-19T01:43:02.350Z,3.17
2023-06-19T01:47:23.090Z,2.97
2023-06-19T01:51:42.007Z,3.70
2023-06-19T01:56:02.747Z,3.95
2023-06-19T02:00:21.548Z,3.30
2023-06-19T02:04:39.295Z,3.13
2023-06-19T02:08:56.955Z,4.13
2023-06-19T02:13:15.151Z,3.90
2023-06-19T02:17:33.260Z,3.22
2023-06-19T02:21:51.690Z,3.15
2023-06-19T02:26:09.282Z,3.10
2023-06-19T02:30:27.594Z,3.58
2023-06-19T02:34:46.765Z,3.40
2023-06-19T02:39:08.156Z,3.00
2023-06-19T02:43:26.217Z,3.97
2023-06-19T02:52:02.222Z,3.97
2023-06-19T02:56:21.253Z,2.95
2023-06-19T03:00:39.661Z,3.40
2023-06-19T03:04:59.028Z,3.08
2023-06-19T03:09:16.741Z,3.25
2023-06-19T03:13:53.325Z,3.33
2023-06-19T03:18:12.258Z,3.38
2023-06-19T03:22:29.922Z,3.65
2023-06-19T03:26:47.575Z,2.95
2023-06-19T03:31:05.309Z,3.25
2023-06-19T03:35:23.481Z,3.53
2023-06-19T03:39:41.657Z,3.55
2023-06-19T03:44:00.305Z,3.50
2023-06-19T03:48:18.891Z,3.90
2023-06-19T03:52:38.266Z,4.00
2023-06-19T03:56:56.319Z,3.92
2023-06-19T04:01:14.410Z,3.80
2023-06-19T04:05:31.583Z,3.72
2023-06-19T04:09:51.683Z,4.28
2023-06-19T04:14:09.245Z,4.07
2023-06-19T04:18:27.426Z,4.13
2023-06-19T04:22:46.574Z,4.03
2023-06-19T04:27:04.538Z,3.63
2023-06-19T04:35:42.069Z,4.20
2023-06-19T04:40:00.678Z,3.50
2023-06-19T04:44:18.203Z,4.03
2023-06-19T04:48:38.301Z,3.85
2023-06-19T04:52:56.155Z,3.22
2023-06-19T04:57:13.714Z,4.20
2023-06-19T05:01:31.981Z,4.10
2023-06-19T05:05:49.749Z,3.63
2023-06-19T05:10:08.986Z,4.32
2023-06-19T05:14:26.614Z,3.30
2023-06-19T05:18:45.368Z,3.88
2023-06-19T05:23:03.684Z,3.75
2023-06-19T05:27:21.109Z,4.65
2023-06-19T05:40:16.665Z,4.47
2023-06-19T05:44:34.247Z,4.07
2023-06-19T05:48:52.808Z,4.82
2023-06-19T05:53:13.391Z,4.82
2023-06-19T05:57:33.333Z,3.88
2023-06-19T06:01:52.402Z,4.00
2023-06-19T06:06:10.033Z,5.22
2023-06-19T06:10:28.305Z,4.60
2023-06-19T06:14:45.989Z,4.90
2023-06-19T06:19:04.088Z,3.97
2023-06-19T06:23:22.229Z,2.90
2023-06-19T06:27:39.946Z,3.55
2023-06-19T06:32:09.112Z,3.03
2023-06-19T06:36:36.025Z,3.65
2023-06-19T06:40:54.819Z,3.67
2023-06-19T06:45:12.448Z,3.55
2023-06-19T06:49:30.518Z,3.08
2023-06-19T06:53:48.381Z,3.60
2023-06-19T07:02:25.331Z,2.53
2023-06-19T07:06:45.029Z,2.88
2023-06-19T07:11:02.657Z,2.80
2023-06-19T07:15:21.371Z,3.28
2023-06-19T07:19:39.074Z,3.30
2023-06-19T07:23:58.622Z,2.70
2023-06-19T07:28:16.933Z,2.75
2023-06-19T07:32:34.637Z,2.80
2023-06-19T07:36:54.473Z,3.20
2023-06-19T07:41:12.416Z,2.63
2023-06-19T07:49:48.155Z,2.60
2023-06-19T07:54:06.402Z,2.35
2023-06-19T07:58:23.916Z,3.20
2023-06-19T08:02:44.262Z,3.00
2023-06-19T08:07:01.937Z,2.80
2023-06-19T08:11:19.953Z,2.80
2023-06-19T08:15:38.024Z,2.58
2023-06-19T08:19:56.578Z,3.35
2023-06-19T08:24:14.159Z,3.35
2023-06-19T08:28:35.221Z,3.65
2023-06-19T08:32:52.962Z,3.30
2023-06-19T08:37:11.332Z,3.17
2023-06-19T08:41:29.539Z,3.78
2023-06-19T08:46:20.245Z,2.53
2023-06-19T08:50:38.721Z,3.22
2023-06-19T08:54:56.288Z,2.28
2023-06-19T08:59:20.040Z,2.05
2023-06-19T09:03:37.678Z,2.35
2023-06-19T09:08:02.904Z,2.58
2023-06-19T09:12:21.550Z,2.70
2023-06-19T09:16:44.090Z,2.33
2023-06-19T09:21:03.068Z,3.17
2023-06-19T09:25:20.935Z,2.90
2023-06-19T09:33:58.236Z,2.75
2023-06-19T09:38:19.646Z,3.25
2023-06-19T09:42:46.178Z,2.28
2023-06-19T09:47:08.527Z,2.50
2023-06-19T09:51:34.376Z,3.17
2023-06-19T09:55:53.092Z,2.70
2023-06-19T10:00:18.470Z,2.83
2023-06-19T10:04:46.572Z,2.80
2023-06-19T10:09:10.191Z,2.20
2023-06-19T10:13:40.794Z,1.83
2023-06-19T10:18:07.067Z,2.28
2023-06-19T10:22:26.012Z,2.58
2023-06-19T10:26:43.633Z,2.88
2023-06-19T10:31:08.074Z,2.47
2023-06-19T10:35:27.175Z,2.30
2023-06-19T10:39:45.886Z,2.30
2023-06-19T10:44:14.151Z,2.47
2023-06-19T10:48:31.962Z,2.78
2023-06-19T10:57:08.737Z,2.70
2023-06-19T11:01:54.184Z,3.20
2023-06-19T11:06:12.243Z,3.47
2023-06-19T11:10:32.482Z,2.60
2023-06-19T11:14:51.718Z,2.75
2023-06-19T11:19:16.582Z,2.83
2023-06-19T11:23:34.149Z,2.65
2023-06-19T11:27:56.912Z,2.30
2023-06-19T11:32:18.867Z,2.30
2023-06-19T11:36:43.743Z,2.45
2023-06-19T11:41:02.472Z,2.28
2023-06-19T11:45:21.642Z,2.45
2023-06-19T11:49:39.420Z,2.60
2023-06-19T11:53:59.042Z,2.30
2023-06-19T11:58:16.727Z,2.42
2023-06-19T12:02:35.138Z,2.17
2023-06-19T12:06:54.245Z,2.38
2023-06-19T12:11:12.832Z,2.00
2023-06-19T12:15:31.669Z,1.90
2023-06-19T12:19:50.050Z,2.38
2023-06-19T12:24:08.378Z,2.42
2023-06-19T12:28:26.756Z,2.10
2023-06-19T12:32:44.518Z,2.03
2023-06-19T12:37:02.947Z,2.47
2023-06-19T12:41:21.370Z,2.30
2023-06-19T12:45:41.088Z,2.08
2023-06-19T12:49:59.295Z,2.20
2023-06-19T12:54:16.824Z,1.90
2023-06-19T12:58:35.396Z,1.75
2023-06-19T13:02:53.882Z,2.20
2023-06-19T13:07:12.092Z,2.05
2023-06-19T13:11:29.982Z,1.60
2023-06-19T13:15:50.066Z,1.60
2023-06-19T13:20:09.209Z,1.58
2023-06-19T13:24:28.804Z,1.63
2023-06-19T13:28:47.192Z,1.85
2023-06-19T13:33:05.452Z,1.70
2023-06-19T13:37:25.260Z,1.83
2023-06-19T13:41:43.572Z,1.75
2023-06-19T13:46:02.240Z,1.83
2023-06-19T13:50:23.009Z,1.80
2023-06-19T13:54:40.865Z,1.58
2023-06-19T13:59:02.396Z,1.63
2023-06-19T14:03:22.013Z,1.70
2023-06-19T14:07:43.187Z,1.85
2023-06-19T14:12:02.524Z,1.67
2023-06-19T14:16:20.163Z,1.77
2023-06-19T14:20:38.663Z,1.50
2023-06-19T14:25:00.881Z,1.73
2023-06-19T14:29:20.014Z,1.73
2023-06-19T14:33:41.900Z,1.80
2023-06-19T14:37:59.518Z,1.85
2023-06-19T14:42:17.977Z,1.95
2023-06-19T14:46:41.708Z,1.75
2023-06-19T14:50:59.882Z,1.70
2023-06-19T14:55:18.054Z,1.45
2023-06-19T14:59:36.510Z,1.77
2023-06-19T15:03:54.401Z,1.77
2023-06-19T15:08:12.664Z,1.70
2023-06-19T15:12:30.419Z,1.98
2023-06-19T15:16:49.187Z,1.92
2023-06-19T15:21:08.493Z,2.55
2023-06-19T15:25:26.308Z,2.05
2023-06-19T15:29:44.080Z,1.70
2023-06-19T15:34:02.980Z,1.90
2023-06-19T15:38:22.018Z,1.70
2023-06-19T15:42:41.053Z,1.60
2023-06-19T15:46:58.692Z,1.92
2023-06-19T15:51:17.212Z,2.08
2023-06-19T15:55:34.849Z,1.88
2023-06-19T16:04:12.351Z,1.85
2023-06-19T16:08:31.017Z,1.80
2023-06-19T16:12:51.424Z,2.13
2023-06-19T16:17:08.883Z,1.92
2023-06-19T16:21:30.220Z,2.30
2023-06-19T16:25:47.813Z,1.85
2023-06-19T16:30:07.033Z,1.92
2023-06-19T16:34:25.245Z,2.03
2023-06-19T16:38:43.532Z,1.60
2023-06-19T16:43:01.869Z,2.17
2023-06-19T16:47:19.830Z,1.65
2023-06-19T16:51:38.686Z,2.20
2023-06-19T16:55:59.640Z,2.20
2023-06-19T17:00:19.002Z,1.80
2023-06-19T17:04:39.249Z,1.80
2023-06-19T17:08:58.393Z,1.55
2023-06-19T17:13:16.382Z,1.98
2023-06-19T17:17:36.734Z,2.08
2023-06-19T17:21:54.984Z,2.30
2023-06-19T17:26:12.629Z,2.60
2023-06-19T17:30:31.046Z,2.28
2023-06-19T17:34:49.481Z,2.28
2023-06-19T17:39:08.690Z,2.40
2023-06-19T17:43:26.272Z,2.38
2023-06-19T17:47:44.717Z,2.15
2023-06-19T17:52:02.886Z,2.47
2023-06-19T17:56:22.096Z,2.85
2023-06-19T18:00:39.995Z,2.80
2023-06-19T18:04:59.722Z,2.90
2023-06-19T18:09:17.320Z,2.55
2023-06-19T18:13:35.015Z,3.00
2023-06-19T18:17:53.179Z,2.67
2023-06-19T18:26:30.078Z,3.00
2023-06-19T18:30:48.365Z,3.33
2023-06-19T18:35:06.946Z,3.20
2023-06-19T18:39:26.177Z,2.90
2023-06-19T18:43:43.819Z,3.92
2023-06-19T18:48:01.696Z,4.07
2023-06-19T18:52:19.286Z,3.55
2023-06-19T18:56:39.124Z,4.57
2023-06-19T19:00:57.427Z,3.92
2023-06-19T19:05:17.033Z,4.82
2023-06-19T19:09:34.653Z,5.85
2023-06-19T19:13:53.043Z,5.68
2023-06-19T19:18:12.754Z,4.60
2023-06-19T19:22:31.779Z,5.22
2023-06-19T19:26:50.079Z,4.95
2023-06-19T19:31:07.759Z,6.22
2023-06-19T19:35:25.450Z,7.07
2023-06-19T19:39:43.935Z,7.15
2023-06-19T19:44:01.527Z,6.20
2023-06-19T19:48:19.459Z,5.88
2023-06-19T19:56:56.883Z,4.45
2023-06-19T20:01:14.701Z,5.22
2023-06-19T20:05:34.308Z,4.60
2023-06-19T20:09:51.940Z,4.68
2023-06-19T20:14:10.156Z,4.97
2023-06-19T20:18:28.904Z,6.28
2023-06-19T20:22:46.988Z,5.50
2023-06-19T20:27:06.231Z,5.70
2023-06-19T20:31:24.926Z,5.82
2023-06-19T20:35:42.603Z,4.35
2023-06-19T20:40:03.573Z,4.93
2023-06-19T20:44:21.699Z,4.15
2023-06-19T20:48:40.654Z,4.05
2023-06-19T20:52:58.772Z,4.75
2023-06-19T20:57:16.544Z,4.28
2023-06-19T21:01:36.578Z,4.40
2023-06-19T21:05:57.725Z,4.55
2023-06-19T21:10:15.642Z,4.68
2023-06-19T21:18:52.559Z,4.85
2023-06-19T21:23:10.106Z,4.57
2023-06-19T21:27:28.679Z,4.72
2023-06-19T21:31:47.239Z,4.28
2023-06-19T21:36:05.970Z,4.78
2023-06-19T21:40:23.916Z,4.40
2023-06-19T21:44:44.626Z,4.22
2023-06-19T21:49:05.295Z,5.18
2023-06-19T21:53:23.854Z,4.57
2023-06-19T22:02:04.846Z,5.10
2023-06-19T22:06:22.851Z,4.97
2023-06-19T22:10:40.845Z,4.85
2023-06-19T22:14:58.688Z,5.20
2023-06-19T22:23:35.024Z,4.85
2023-06-19T22:27:55.650Z,5.07
2023-06-19T22:32:15.085Z,4.85
2023-06-19T22:36:32.692Z,4.40
2023-06-19T22:40:50.111Z,5.17
2023-06-19T22:49:30.484Z,4.63
2023-06-19T22:53:49.889Z,4.68
2023-06-19T22:58:07.453Z,4.85
2023-06-19T23:02:25.267Z,4.43
2023-06-19T23:06:44.651Z,4.80
2023-06-19T23:11:02.727Z,5.15
2023-06-19T23:15:20.311Z,4.15
2023-06-19T23:19:37.940Z,4.07
2023-06-19T23:23:57.140Z,4.45
2023-06-19T23:28:15.146Z,4.50
2023-06-19T23:32:32.817Z,4.20
2023-06-19T23:36:53.591Z,4.25
2023-06-19T23:41:12.896Z,4.28
2023-06-19T23:45:30.463Z,4.75
2023-06-19T23:49:49.785Z,4.53
2023-06-19T23:54:07.502Z,4.68
2023-06-19T23:58:25.603Z,4.57
